Time;durP1;ratioP1;P1;durP2;ratioP2;P2;SDS_P1;SDS_P2;PMS_P1;PMS_P2;Temp;Humidity;BMP_temperature;BMP_pressure;BME280_temperature;BME280_humidity;BME280_pressure;Samples;Min_cycle;Max_cycle;Signal;HPM_P1;HPM_P2
2022/12/30 00:01:18;;;;;;;;;;;;;;;5.13;100.00;100623.44;5079797;28;19972;-74
2022/12/30 00:03:44;;;;;;;;;;;;;;;5.12;100.00;100632.22;5076121;28;19993;-75
2022/12/30 00:06:14;;;;;;;;;;;;;;;5.13;100.00;100631.31;5060036;28;20940;-74
2022/12/30 00:08:46;;;;;;;;;;;;;;;5.11;100.00;100630.47;5081938;28;20390;-74
2022/12/30 00:11:15;;;;;;;;;;;;;;;5.11;100.00;100619.97;5074747;28;20255;-74
2022/12/30 00:33:24;;;;;;;;;;;;;;;4.90;100.00;100635.34;5066049;28;19924;-74
2022/12/30 00:35:49;;;;;;;;;;;;;;;4.88;100.00;100645.91;5049012;28;20382;-74
2022/12/30 00:38:15;;;;;;;;;;;;;;;4.86;100.00;100644.22;5078632;28;20018;-74
2022/12/30 00:43:07;;;;;;;;;;;;;;;4.81;100.00;100649.59;5080429;28;19932;-74
2022/12/30 00:43:25;;;;;;;;;;;;;;;4.80;100.00;100647.00;5079301;28;19950;-74
2022/12/30 00:45:53;;;;;;;;;;;;;;;4.76;100.00;100649.69;5080103;28;20847;-74
2022/12/30 00:56:30;;;;;;;;;;;;;;;4.63;100.00;100666.59;5064754;28;20520;-74
2022/12/30 00:58:56;;;;;;;;;;;;;;;4.62;100.00;100664.88;5081210;28;19932;-74
2022/12/30 01:01:21;;;;;;;;;;;;;;;4.61;100.00;100671.03;5080388;28;20464;-74
2022/12/30 01:03:47;;;;;;;;;;;;;;;4.58;100.00;100668.50;5064067;28;19924;-74
2022/12/30 01:06:12;;;;;;;;;;;;;;;4.55;100.00;100676.41;5066582;28;19958;-75
2022/12/30 01:08:38;;;;;;;;;;;;;;;4.52;100.00;100679.97;5075436;28;19939;-74
2022/12/30 01:11:07;;;;;;;;;;;;;;;4.51;100.00;100680.03;5078591;28;19963;-74
2022/12/30 01:13:32;;;;;;;;;;;;;;;4.51;100.00;100687.91;5059264;28;20395;-74
2022/12/30 01:15:58;;;;;;;;;;;;;;;4.49;100.00;100680.91;5079614;28;19975;-74
2022/12/30 01:18:23;;;;;;;;;;;;;;;4.53;100.00;100686.09;5063295;28;19955;-74
2022/12/30 01:20:48;;;;;;;;;;;;;;;4.51;100.00;100690.50;5079868;28;19924;-74
2022/12/30 01:23:14;;;;;;;;;;;;;;;4.51;100.00;100688.72;5080904;28;19928;-74
2022/12/30 01:25:40;;;;;;;;;;;;;;;4.49;100.00;100688.75;5077919;28;19943;-74
2022/12/30 01:28:05;;;;;;;;;;;;;;;4.52;100.00;100695.69;5063196;28;19978;-73
2022/12/30 01:30:31;;;;;;;;;;;;;;;4.55;100.00;100697.41;5061104;28;19967;-74
2022/12/30 01:32:56;;;;;;;;;;;;;;;4.54;100.00;100704.41;5082429;28;19992;-74
2022/12/30 01:35:22;;;;;;;;;;;;;;;4.57;100.00;100703.50;5081495;28;20001;-75
2022/12/30 01:37:47;;;;;;;;;;;;;;;4.57;100.00;100712.19;5082780;28;19973;-73
2022/12/30 01:40:12;;;;;;;;;;;;;;;4.57;100.00;100716.59;5079267;28;19947;-73
2022/12/30 01:42:38;;;;;;;;;;;;;;;4.58;100.00;100715.69;5076715;28;19924;-74
2022/12/30 01:45:14;;;;;;;;;;;;;;;4.58;100.00;100719.16;5058720;28;19951;-74
2022/12/30 01:47:42;;;;;;;;;;;;;;;4.56;100.00;100720.09;5060898;28;19996;-74
2022/12/30 01:50:11;;;;;;;;;;;;;;;4.54;100.00;100724.50;5078963;28;19930;-75
2022/12/30 01:52:41;;;;;;;;;;;;;;;4.53;100.00;100725.41;5064772;28;19924;-74
2022/12/30 01:55:09;;;;;;;;;;;;;;;4.48;100.00;100720.28;5058132;28;20332;-74
2022/12/30 01:57:34;;;;;;;;;;;;;;;4.42;100.00;100726.50;5079952;28;19928;-74
2022/12/30 02:00:00;;;;;;;;;;;;;;;4.40;100.00;100722.22;5081960;28;20485;-74
2022/12/30 02:02:26;;;;;;;;;;;;;;;4.38;100.00;100721.38;5063942;28;19938;-73
2022/12/30 02:04:51;;;;;;;;;;;;;;;4.38;100.00;100723.97;5079875;28;20278;-74
2022/12/30 02:07:24;;;;;;;;;;;;;;;4.36;100.00;100726.63;5082208;28;19931;-74
2022/12/30 02:09:50;;;;;;;;;;;;;;;4.37;100.00;100733.63;5060705;28;19977;-74
2022/12/30 02:12:15;;;;;;;;;;;;;;;4.37;100.00;100719.63;5045649;28;19989;-74
2022/12/30 02:14:41;;;;;;;;;;;;;;;4.35;100.00;100731.03;5056884;28;20413;-74
2022/12/30 02:17:22;;;;;;;;;;;;;;;4.34;100.00;100728.44;5060042;28;19974;-74
2022/12/30 02:19:56;;;;;;;;;;;;;;;4.33;100.00;100735.44;5066096;28;19928;-74
2022/12/30 02:22:28;;;;;;;;;;;;;;;4.34;100.00;100736.28;5078011;28;19959;-74
2022/12/30 02:24:53;;;;;;;;;;;;;;;4.33;100.00;100726.72;5079015;28;19928;-74
2022/12/30 02:27:37;;;;;;;;;;;;;;;4.32;100.00;100725.84;5078483;28;20049;-74
2022/12/30 02:30:07;;;;;;;;;;;;;;;4.33;100.00;100721.47;5079124;28;19928;-74
2022/12/30 02:32:51;;;;;;;;;;;;;;;4.32;100.00;100717.13;5081880;28;19923;-74
2022/12/30 02:35:19;;;;;;;;;;;;;;;4.29;100.00;100719.78;5081194;28;19970;-74
2022/12/30 02:37:45;;;;;;;;;;;;;;;4.25;100.00;100721.63;5083064;28;20327;-73
2022/12/30 02:40:19;;;;;;;;;;;;;;;4.21;100.00;100718.19;5082494;28;20038;-74
2022/12/30 02:45:50;;;;;;;;;;;;;;;4.16;100.00;100719.19;5054311;28;20267;-74
2022/12/30 02:48:22;;;;;;;;;;;;;;;4.13;100.00;100724.53;5043902;28;20055;-74
2022/12/30 02:53:33;;;;;;;;;;;;;;;4.05;100.00;100719.44;5045527;28;19927;-74
2022/12/30 02:55:58;;;;;;;;;;;;;;;4.02;100.00;100722.97;5059585;28;19931;-74
2022/12/30 02:58:24;;;;;;;;;;;;;;;4.01;100.00;100723.00;5060746;28;19924;-74
2022/12/30 03:03:58;;;;;;;;;;;;;;;3.96;100.00;100725.72;5076869;28;19924;-74
2022/12/30 03:06:56;;;;;;;;;;;;;;;3.94;100.00;100733.59;5067168;28;19928;-73
2022/12/30 03:09:21;;;;;;;;;;;;;;;3.94;100.00;100740.59;5043089;28;19939;-74
2022/12/30 03:11:53;;;;;;;;;;;;;;;3.92;100.00;100738.00;5077869;28;20490;-73
2022/12/30 03:14:24;;;;;;;;;;;;;;;3.91;100.00;100741.50;5060316;28;19928;-73
2022/12/30 03:17:16;;;;;;;;;;;;;;;3.89;100.00;100730.22;5078012;28;19932;-74
2022/12/30 03:19:42;;;;;;;;;;;;;;;3.86;100.00;100730.25;5073669;28;19927;-73
2022/12/30 03:27:02;;;;;;;;;;;;;;;3.84;100.00;100728.56;5048408;28;20015;-73
2022/12/30 03:27:37;;;;;;;;;;;;;;;3.82;100.00;100718.13;5078060;28;19923;-73
2022/12/30 03:30:03;;;;;;;;;;;;;;;3.79;100.00;100718.19;5041085;28;19930;-74
2022/12/30 03:32:28;;;;;;;;;;;;;;;3.78;100.00;100709.47;5041172;28;20379;-73
2022/12/30 03:34:54;;;;;;;;;;;;;;;3.77;100.00;100718.19;5078722;28;19924;-74
2022/12/30 03:37:27;;;;;;;;;;;;;;;3.78;100.00;100719.06;5060184;28;19924;-74
2022/12/30 03:40:12;;;;;;;;;;;;;;;3.76;100.00;100716.47;5075203;28;19928;-74
2022/12/30 03:42:38;;;;;;;;;;;;;;;3.76;100.00;100715.63;5074105;28;19924;-74
2022/12/30 03:45:04;;;;;;;;;;;;;;;3.75;100.00;100719.13;5077246;28;20300;-74
2022/12/30 03:47:29;;;;;;;;;;;;;;;3.74;100.00;100712.16;5051939;28;19963;-74
2022/12/30 03:49:54;;;;;;;;;;;;;;;3.73;100.00;100715.66;5045004;28;21938;-75
2022/12/30 03:52:21;;;;;;;;;;;;;;;3.71;100.00;100720.09;5078991;28;20387;-74
2022/12/30 03:54:46;;;;;;;;;;;;;;;3.70;100.00;100726.22;5046709;28;19927;-74
2022/12/30 03:57:12;;;;;;;;;;;;;;;3.69;100.00;100725.34;5077481;28;19935;-74
2022/12/30 03:59:37;;;;;;;;;;;;;;;3.69;100.00;100719.25;5058063;28;19932;-74
2022/12/30 04:02:02;;;;;;;;;;;;;;;3.67;100.00;100725.34;5079198;28;19928;-74
2022/12/30 04:04:28;;;;;;;;;;;;;;;3.67;100.00;100719.28;5075527;28;20985;-74
2022/12/30 04:06:53;;;;;;;;;;;;;;;3.65;100.00;100721.06;5080302;28;20100;-74
2022/12/30 04:09:19;;;;;;;;;;;;;;;3.63;100.00;100721.09;5064842;28;19928;-74
2022/12/30 04:11:44;;;;;;;;;;;;;;;3.63;100.00;100710.63;5059608;28;19981;-74
2022/12/30 04:14:10;;;;;;;;;;;;;;;3.64;100.00;100720.19;5058107;28;19932;-75
2022/12/30 04:16:35;;;;;;;;;;;;;;;3.64;100.00;100708.84;5056558;28;19932;-74
2022/12/30 04:19:01;;;;;;;;;;;;;;;3.64;100.00;100707.09;5059355;28;19932;-74
2022/12/30 04:21:26;;;;;;;;;;;;;;;3.63;100.00;100707.13;5078417;28;19935;-74
2022/12/30 04:23:52;;;;;;;;;;;;;;;3.63;100.00;100700.16;5077349;28;19940;-74
2022/12/30 04:26:17;;;;;;;;;;;;;;;3.65;100.00;100700.97;5058021;28;19932;-74
2022/12/30 04:28:42;;;;;;;;;;;;;;;3.64;100.00;100701.88;5072668;28;19939;-74
2022/12/30 04:31:08;;;;;;;;;;;;;;;3.64;100.00;100706.22;5057817;28;19932;-74
2022/12/30 04:33:33;;;;;;;;;;;;;;;3.65;100.00;100705.38;5083282;28;19958;-74
2022/12/30 04:35:58;;;;;;;;;;;;;;;3.69;100.00;100708.78;5083356;28;20638;-74
2022/12/30 04:38:24;;;;;;;;;;;;;;;3.70;100.00;100710.50;5063429;28;19927;-74
2022/12/30 04:40:49;;;;;;;;;;;;;;;3.70;100.00;100710.50;5083651;28;19932;-74
2022/12/30 04:43:15;;;;;;;;;;;;;;;3.69;100.00;100724.50;5045489;28;20619;-75
2022/12/30 04:45:40;;;;;;;;;;;;;;;3.68;100.00;100731.47;5079402;28;19935;-74
2022/12/30 04:48:06;;;;;;;;;;;;;;;3.67;100.00;100724.50;5083187;28;19989;-74
2022/12/30 04:50:31;;;;;;;;;;;;;;;3.67;100.00;100722.75;5081327;28;20025;-74
2022/12/30 04:52:56;;;;;;;;;;;;;;;3.67;100.00;100720.13;5082666;28;19934;-74
2022/12/30 04:55:22;;;;;;;;;;;;;;;3.68;100.00;100718.38;5078173;28;19928;-74
2022/12/30 04:57:47;;;;;;;;;;;;;;;3.67;100.00;100714.88;5076542;28;20249;-75
2022/12/30 05:00:13;;;;;;;;;;;;;;;3.67;100.00;100712.28;5077355;28;20694;-74
2022/12/30 05:02:38;;;;;;;;;;;;;;;3.67;100.00;100709.66;5067038;28;19932;-74
2022/12/30 05:05:04;;;;;;;;;;;;;;;3.67;100.00;100701.78;5062591;28;20425;-74
2022/12/30 05:07:30;;;;;;;;;;;;;;;3.67;100.00;100717.50;5082452;28;19950;-74
2022/12/30 05:09:55;;;;;;;;;;;;;;;3.70;100.00;100715.75;5066392;28;20462;-74
2022/12/30 05:12:20;;;;;;;;;;;;;;;3.69;100.00;100730.56;5062714;28;19932;-74
2022/12/30 05:14:46;;;;;;;;;;;;;;;3.72;100.00;100729.66;5079209;28;19932;-74
2022/12/30 05:17:11;;;;;;;;;;;;;;;3.75;100.00;100735.69;5078499;28;19935;-75
2022/12/30 05:19:36;;;;;;;;;;;;;;;3.78;100.00;100740.91;5033713;28;19928;-75
2022/12/30 05:22:02;;;;;;;;;;;;;;;3.83;100.00;100743.44;5059442;28;19998;-75
2022/12/30 05:27:11;;;;;;;;;;;;;;;3.95;100.00;100737.09;5064985;28;19951;-74
2022/12/30 05:29:37;;;;;;;;;;;;;;;4.01;100.00;100736.09;5062197;28;19928;-74
2022/12/30 05:32:02;;;;;;;;;;;;;;;4.03;100.00;100739.56;5057216;28;19939;-74
2022/12/30 05:34:28;;;;;;;;;;;;;;;4.01;100.00;100739.59;5061777;28;20427;-75
2022/12/30 05:36:53;;;;;;;;;;;;;;;4.00;100.00;100730.00;5081253;28;19928;-74
2022/12/30 05:39:18;;;;;;;;;;;;;;;4.00;100.00;100729.13;5082420;28;19992;-74
2022/12/30 05:41:44;;;;;;;;;;;;;;;3.98;100.00;100721.28;5079369;28;19928;-75
2022/12/30 05:44:09;;;;;;;;;;;;;;;3.99;100.00;100722.16;5081083;28;20477;-74
2022/12/30 05:46:35;;;;;;;;;;;;;;;4.01;100.00;100723.00;5078687;28;20441;-75
2022/12/30 05:49:00;;;;;;;;;;;;;;;4.01;100.00;100720.38;5078997;28;19971;-74
2022/12/30 05:51:25;;;;;;;;;;;;;;;4.00;100.00;100719.53;5078218;28;20101;-75
2022/12/30 05:53:51;;;;;;;;;;;;;;;3.99;100.00;100711.69;5079273;28;19932;-74
2022/12/30 05:56:16;;;;;;;;;;;;;;;3.96;100.00;100714.38;5052093;28;20034;-75
2022/12/30 05:58:42;;;;;;;;;;;;;;;3.90;100.00;100703.13;5061177;28;19950;-75
2022/12/30 06:01:07;;;;;;;;;;;;;;;3.86;100.00;100700.59;5042015;28;19984;-75
2022/12/30 06:03:32;;;;;;;;;;;;;;;3.81;100.00;100703.28;5060999;28;19928;-75
2022/12/30 06:05:59;;;;;;;;;;;;;;;3.73;100.00;100700.84;5079975;28;19978;-74
2022/12/30 06:08:24;;;;;;;;;;;;;;;3.67;100.00;100700.94;5063420;28;20148;-74
2022/12/30 06:10:50;;;;;;;;;;;;;;;3.63;100.00;100691.41;5082219;28;19928;-74
2022/12/30 06:13:15;;;;;;;;;;;;;;;3.60;100.00;100688.88;5061160;28;19928;-74
2022/12/30 06:15:40;;;;;;;;;;;;;;;3.56;100.00;100698.53;5043790;28;19942;-75
2022/12/30 06:18:06;;;;;;;;;;;;;;;3.53;100.00;100695.97;5079564;28;20398;-75
2022/12/30 06:20:34;;;;;;;;;;;;;;;3.49;100.00;100703.00;5077898;28;19984;-75
2022/12/30 06:23:00;;;;;;;;;;;;;;;3.46;100.00;100692.59;5048575;28;19932;-74
2022/12/30 06:25:25;;;;;;;;;;;;;;;3.44;100.00;100696.13;5077487;28;19971;-75
2022/12/30 06:27:51;;;;;;;;;;;;;;;3.41;100.00;100686.59;5061953;28;20305;-75
2022/12/30 06:30:16;;;;;;;;;;;;;;;3.38;100.00;100692.72;5060779;28;19932;-74
2022/12/30 06:32:41;;;;;;;;;;;;;;;3.36;100.00;100686.66;5075057;28;19939;-74
2022/12/30 06:35:07;;;;;;;;;;;;;;;3.35;100.00;100690.19;5061745;28;20323;-74
2022/12/30 06:37:33;;;;;;;;;;;;;;;3.34;100.00;100688.47;5081048;28;20357;-74
2022/12/30 06:39:58;;;;;;;;;;;;;;;3.31;100.00;100678.03;5064354;28;19931;-74
2022/12/30 06:42:24;;;;;;;;;;;;;;;3.29;100.00;100669.34;5061382;28;20030;-75
2022/12/30 06:44:49;;;;;;;;;;;;;;;3.27;100.00;100668.50;5059656;28;19966;-74
2022/12/30 06:47:14;;;;;;;;;;;;;;;3.25;100.00;100657.19;5078275;28;20417;-75
2022/12/30 06:49:40;;;;;;;;;;;;;;;3.24;100.00;100660.72;5076857;28;20318;-74
2022/12/30 06:52:05;;;;;;;;;;;;;;;3.23;100.00;100665.06;5078130;28;19928;-75
2022/12/30 06:54:30;;;;;;;;;;;;;;;3.22;100.00;100659.88;5056598;28;19932;-74
2022/12/30 06:56:56;;;;;;;;;;;;;;;3.20;100.00;100665.13;5080719;28;21371;-75
2022/12/30 06:59:21;;;;;;;;;;;;;;;3.19;100.00;100659.94;5077589;28;20375;-75
2022/12/30 07:01:47;;;;;;;;;;;;;;;3.18;100.00;100652.97;5078924;28;19932;-74
2022/12/30 07:04:12;;;;;;;;;;;;;;;3.18;100.00;100647.75;5076806;28;20011;-74
2022/12/30 07:06:38;;;;;;;;;;;;;;;3.17;100.00;100639.03;5078815;28;19939;-75
2022/12/30 07:09:03;;;;;;;;;;;;;;;3.17;100.00;100653.88;5080375;28;20031;-75
2022/12/30 07:11:28;;;;;;;;;;;;;;;3.16;100.00;100631.22;5084725;28;19990;-75
2022/12/30 07:13:54;;;;;;;;;;;;;;;3.17;100.00;100627.69;5060515;28;20323;-74
2022/12/30 07:16:19;;;;;;;;;;;;;;;3.16;100.00;100618.97;5078505;28;19935;-75
2022/12/30 07:18:45;;;;;;;;;;;;;;;3.16;100.00;100620.75;5074351;28;19932;-74
2022/12/30 07:21:10;;;;;;;;;;;;;;;3.14;100.00;100617.31;5077025;28;19935;-74
2022/12/30 07:23:36;;;;;;;;;;;;;;;3.11;100.00;100619.06;5075007;28;20496;-75
2022/12/30 07:26:01;;;;;;;;;;;;;;;3.08;100.00;100611.28;5078567;28;19928;-74
2022/12/30 07:28:26;;;;;;;;;;;;;;;3.06;100.00;100610.44;5079719;28;20010;-75
2022/12/30 07:30:52;;;;;;;;;;;;;;;3.03;100.00;100607.88;5078036;28;20663;-74
2022/12/30 07:33:17;;;;;;;;;;;;;;;2.99;100.00;100603.59;5048485;28;19931;-74
2022/12/30 07:35:43;;;;;;;;;;;;;;;2.97;100.00;100598.41;5079273;28;20066;-74
2022/12/30 07:38:08;;;;;;;;;;;;;;;2.95;100.00;100602.78;5059998;28;19924;-74
2022/12/30 07:40:36;;;;;;;;;;;;;;;2.94;100.00;100611.50;5080842;28;19989;-74
2022/12/30 07:43:02;;;;;;;;;;;;;;;2.94;100.00;100611.50;5057327;28;19936;-74
2022/12/30 07:45:27;;;;;;;;;;;;;;;2.93;100.00;100609.78;5083182;28;19979;-74
2022/12/30 07:47:53;;;;;;;;;;;;;;;2.94;100.00;100615.91;5065538;28;19963;-74
2022/12/30 07:50:18;;;;;;;;;;;;;;;2.93;100.00;100615.03;5083136;28;20562;-74
2022/12/30 07:52:44;;;;;;;;;;;;;;;2.94;100.00;100608.06;5063208;28;21864;-74
2022/12/30 07:55:09;;;;;;;;;;;;;;;2.94;100.00;100605.44;5083555;28;19932;-74
2022/12/30 07:57:34;;;;;;;;;;;;;;;2.94;100.00;100601.06;5081211;28;20015;-74
2022/12/30 08:00:00;;;;;;;;;;;;;;;2.94;100.00;100597.59;5075212;28;19967;-74
2022/12/30 08:02:25;;;;;;;;;;;;;;;2.95;100.00;100599.31;5078249;28;19939;-74
2022/12/30 08:04:51;;;;;;;;;;;;;;;2.95;100.00;100588.84;5058316;28;19939;-74
2022/12/30 08:07:17;;;;;;;;;;;;;;;2.96;100.00;100587.97;5078293;28;19954;-73
2022/12/30 08:09:42;;;;;;;;;;;;;;;2.96;100.00;100588.81;5042166;28;19939;-73
2022/12/30 08:12:08;;;;;;;;;;;;;;;2.97;100.00;100584.44;5042487;28;19932;-73
2022/12/30 08:14:33;;;;;;;;;;;;;;;2.99;100.00;100590.50;5062086;28;19935;-73
2022/12/30 08:16:59;;;;;;;;;;;;;;;2.99;100.00;100577.44;5049477;28;19970;-76
2022/12/30 08:19:24;;;;;;;;;;;;;;;3.00;100.00;100581.78;5066936;28;19939;-75
2022/12/30 08:21:50;;;;;;;;;;;;;;;3.02;100.00;100576.50;5069740;28;19957;-76
2022/12/30 08:24:15;;;;;;;;;;;;;;;3.02;100.00;100579.13;5065907;28;20069;-73
2022/12/30 08:26:41;;;;;;;;;;;;;;;3.02;100.00;100571.28;5068172;28;19928;-75
2022/12/30 08:29:06;;;;;;;;;;;;;;;3.02;100.00;100572.16;5071608;28;19935;-76
2022/12/30 08:31:32;;;;;;;;;;;;;;;3.02;100.00;100566.94;5050919;28;20249;-75
2022/12/30 08:33:57;;;;;;;;;;;;;;;3.04;100.00;100559.91;5051370;28;20012;-74
2022/12/30 08:36:23;;;;;;;;;;;;;;;3.04;100.00;100556.44;5048654;28;19943;-74
2022/12/30 08:38:50;;;;;;;;;;;;;;;3.04;100.00;100549.44;5052091;28;20525;-75
2022/12/30 08:41:18;;;;;;;;;;;;;;;3.05;100.00;100543.31;5076229;28;20305;-74
2022/12/30 08:43:43;;;;;;;;;;;;;;;3.07;100.00;100540.69;5058287;28;20486;-74
2022/12/30 08:46:10;;;;;;;;;;;;;;;3.08;100.00;100537.16;5076028;28;19927;-74
2022/12/30 08:48:35;;;;;;;;;;;;;;;3.10;100.00;100530.13;5073853;28;19928;-74
2022/12/30 08:51:01;;;;;;;;;;;;;;;3.10;100.00;100533.63;5060670;28;19935;-74
2022/12/30 08:53:27;;;;;;;;;;;;;;;3.10;100.00;100536.25;5057298;28;20202;-73
2022/12/30 08:55:59;;;;;;;;;;;;;;;3.10;100.00;100525.78;5060135;28;20271;-74
2022/12/30 08:58:25;;;;;;;;;;;;;;;3.11;100.00;100529.28;5070765;28;20391;-74
2022/12/30 09:00:50;;;;;;;;;;;;;;;3.11;100.00;100517.03;5059771;28;20022;-74
2022/12/30 09:03:16;;;;;;;;;;;;;;;3.11;100.00;100513.56;5075762;28;20013;-76
2022/12/30 09:05:41;;;;;;;;;;;;;;;3.12;100.00;100510.06;5058010;28;19997;-76
2022/12/30 09:08:06;;;;;;;;;;;;;;;3.12;100.00;100515.31;5053159;28;20019;-75
2022/12/30 09:10:32;;;;;;;;;;;;;;;3.15;100.00;100517.00;5070746;28;20125;-75
2022/12/30 09:12:57;;;;;;;;;;;;;;;3.15;100.00;100512.59;5074957;28;19923;-75
2022/12/30 09:15:23;;;;;;;;;;;;;;;3.17;100.00;100520.44;5053493;28;20387;-75
2022/12/30 09:17:48;;;;;;;;;;;;;;;3.17;100.00;100508.22;5075428;28;19924;-76
2022/12/30 09:20:14;;;;;;;;;;;;;;;3.19;100.00;100497.72;5073827;27;20024;-76
2022/12/30 09:22:39;;;;;;;;;;;;;;;3.23;100.00;100496.75;5076314;28;19953;-76
2022/12/30 09:25:05;;;;;;;;;;;;;;;3.25;100.00;100489.72;5056285;28;19932;-75
2022/12/30 09:27:30;;;;;;;;;;;;;;;3.29;100.00;100501.88;5056209;28;19928;-75
2022/12/30 09:29:56;;;;;;;;;;;;;;;3.33;100.00;100492.22;5067309;28;20048;-75
2022/12/30 09:32:22;;;;;;;;;;;;;;;3.37;100.00;100484.25;5049681;28;20875;-75
2022/12/30 09:34:47;;;;;;;;;;;;;;;3.41;100.00;100485.03;5065290;27;19974;-75
2022/12/30 09:37:13;;;;;;;;;;;;;;;3.46;100.00;100477.09;5065838;28;20408;-76
2022/12/30 09:39:38;;;;;;;;;;;;;;;3.51;100.00;100462.16;5068145;28;20667;-76
2022/12/30 09:44:51;;;;;;;;;;;;;;;3.58;100.00;100466.34;5063535;28;19932;-76
2022/12/30 09:47:20;;;;;;;;;;;;;;;3.63;100.00;100458.38;5079670;28;20071;-75
2022/12/30 09:49:50;;;;;;;;;;;;;;;3.67;100.00;100444.34;5074015;28;19954;-74
2022/12/30 09:52:23;;;;;;;;;;;;;;;3.71;100.00;100458.22;5057656;28;20373;-75
2022/12/30 09:54:52;;;;;;;;;;;;;;;3.73;100.00;100451.19;5072716;28;21659;-75
2022/12/30 09:57:30;;;;;;;;;;;;;;;3.78;100.00;100467.66;5052422;28;19924;-75
2022/12/30 09:59:56;;;;;;;;;;;;;;;3.80;100.00;100463.25;5052093;28;19957;-75
2022/12/30 10:02:27;;;;;;;;;;;;;;;3.84;100.00;100457.03;5047759;28;19928;-75
2022/12/30 10:04:53;;;;;;;;;;;;;;;3.89;100.00;100460.44;5045032;28;19928;-75
2022/12/30 10:07:24;;;;;;;;;;;;;;;3.91;100.00;100448.13;5048088;28;20575;-76
2022/12/30 10:09:50;;;;;;;;;;;;;;;3.96;100.00;100440.16;5057099;28;19924;-75
2022/12/30 10:12:20;;;;;;;;;;;;;;;4.00;100.00;100427.84;5053717;28;20336;-75
2022/12/30 10:14:49;;;;;;;;;;;;;;;4.03;100.00;100420.78;5051521;28;19935;-76
2022/12/30 10:17:18;;;;;;;;;;;;;;;4.06;100.00;100404.13;5051194;28;19931;-75
2022/12/30 10:20:02;;;;;;;;;;;;;;;4.10;100.00;100400.53;5071501;28;19923;-75
2022/12/30 10:22:34;;;;;;;;;;;;;;;4.12;100.00;100390.88;5069973;28;19924;-74
2022/12/30 10:24:59;;;;;;;;;;;;;;;4.16;100.00;100382.03;5067103;28;22006;-74
2022/12/30 10:27:26;;;;;;;;;;;;;;;4.18;100.00;100366.25;5065116;28;19944;-74
2022/12/30 10:29:51;;;;;;;;;;;;;;;4.20;100.00;100362.69;5019362;28;19927;-74
2022/12/30 10:32:18;;;;;;;;;;;;;;;4.24;100.00;100346.91;5049291;28;20280;-74
2022/12/30 10:34:44;;;;;;;;;;;;;;;4.25;100.00;100336.38;5068066;27;20500;-75
2022/12/30 10:37:28;;;;;;;;;;;;;;;4.28;100.00;100327.56;5035305;28;21414;-76
2022/12/30 10:39:54;;;;;;;;;;;;;;;4.30;100.00;100307.44;5053701;28;19932;-75
2022/12/30 10:42:29;;;;;;;;;;;;;;;4.34;100.00;100303.81;5037475;28;20319;-75
2022/12/30 10:45:01;;;;;;;;;;;;;;;4.35;100.00;100306.41;5047284;28;20244;-74
2022/12/30 10:47:35;;;;;;;;;;;;;;;4.39;100.00;100296.69;5072419;28;20336;-75
2022/12/30 10:50:06;;;;;;;;;;;;;;;4.43;100.00;100293.09;5070049;28;19928;-74
2022/12/30 10:52:32;;;;;;;;;;;;;;;4.47;100.00;100293.84;5069558;28;19928;-74
2022/12/30 10:54:59;;;;;;;;;;;;;;;4.51;100.00;100287.59;5053314;28;23429;-75
2022/12/30 10:57:26;;;;;;;;;;;;;;;4.54;100.00;100284.03;5059550;28;20703;-75
2022/12/30 10:59:54;;;;;;;;;;;;;;;4.56;100.00;100287.47;5049896;28;19935;-74
2022/12/30 11:02:28;;;;;;;;;;;;;;;4.61;100.00;100269.84;5068631;28;19928;-74
2022/12/30 11:04:53;;;;;;;;;;;;;;;4.64;100.00;100267.13;5073361;28;20022;-74
2022/12/30 11:07:20;;;;;;;;;;;;;;;4.68;100.00;100262.66;5065280;28;19928;-74
2022/12/30 11:09:46;;;;;;;;;;;;;;;4.70;100.00;100258.22;5037018;28;20405;-74
2022/12/30 11:15:07;;;;;;;;;;;;;;;4.73;100.00;100227.50;5050486;28;20379;-74
2022/12/30 11:17:36;;;;;;;;;;;;;;;4.74;100.00;100218.72;5032391;28;19928;-74
2022/12/30 11:20:06;;;;;;;;;;;;;;;4.76;100.00;100205.56;5048298;28;20135;-74
2022/12/30 11:22:31;;;;;;;;;;;;;;;4.77;100.00;100196.78;5045739;28;20715;-73
2022/12/30 11:24:57;;;;;;;;;;;;;;;4.79;100.00;100186.25;5049017;28;20200;-74
2022/12/30 11:27:28;;;;;;;;;;;;;;;4.81;100.00;100176.56;5046690;28;19924;-74
2022/12/30 11:29:53;;;;;;;;;;;;;;;4.82;100.00;100175.66;5046983;28;19928;-73
2022/12/30 11:32:18;;;;;;;;;;;;;;;4.83;100.00;100159.88;5044321;28;19925;-74
2022/12/30 11:34:44;;;;;;;;;;;;;;;4.86;100.00;100141.41;5048318;28;19928;-75
2022/12/30 11:37:31;;;;;;;;;;;;;;;4.87;100.00;100139.66;5045325;28;19928;-74
2022/12/30 11:39:57;;;;;;;;;;;;;;;4.91;100.00;100136.03;5049679;28;20054;-74
2022/12/30 11:42:30;;;;;;;;;;;;;;;4.94;100.00;100122.81;5044595;28;20390;-74
2022/12/30 11:45:11;;;;;;;;;;;;;;;4.96;100.00;100115.72;5048933;28;19932;-75
2022/12/30 11:47:42;;;;;;;;;;;;;;;5.00;100.00;100101.59;5038478;28;19929;-75
2022/12/30 11:50:13;;;;;;;;;;;;;;;5.04;100.00;100086.63;5043488;28;20383;-74
2022/12/30 11:52:38;;;;;;;;;;;;;;;5.07;100.00;100081.25;5039367;28;20430;-74
2022/12/30 11:55:04;;;;;;;;;;;;;;;5.11;100.00;100061.00;5049084;28;19947;-74
2022/12/30 11:57:30;;;;;;;;;;;;;;;5.15;100.00;100046.88;5042151;28;20148;-74
2022/12/30 12:00:05;;;;;;;;;;;;;;;5.18;100.00;100031.03;5047339;28;20489;-74
2022/12/30 12:02:32;;;;;;;;;;;;;;;5.23;100.00;100049.25;5040844;28;19925;-74
2022/12/30 12:04:58;;;;;;;;;;;;;;;5.28;100.00;100039.41;5043646;28;20478;-74
2022/12/30 12:07:25;;;;;;;;;;;;;;;5.29;100.00;100025.41;5041043;28;19924;-74
2022/12/30 12:09:59;;;;;;;;;;;;;;;5.35;100.00;100019.94;5047355;28;19928;-74
2022/12/30 12:12:27;;;;;;;;;;;;;;;5.40;100.00;100017.97;5047380;28;19928;-74
2022/12/30 12:14:58;;;;;;;;;;;;;;;5.45;100.00;100009.91;5059574;28;19927;-75
2022/12/30 12:17:28;;;;;;;;;;;;;;;5.50;100.00;99986.97;5060817;28;19924;-74
2022/12/30 12:19:55;;;;;;;;;;;;;;;5.54;100.00;99999.09;5042391;28;19979;-74
2022/12/30 12:22:33;;;;;;;;;;;;;;;5.57;100.00;99982.34;5049744;28;19935;-75
2022/12/30 12:25:03;;;;;;;;;;;;;;;5.58;100.00;99973.56;5058386;28;20024;-74
2022/12/30 12:27:28;;;;;;;;;;;;;;;5.60;100.00;99955.13;5051110;28;19928;-74
2022/12/30 12:29:54;;;;;;;;;;;;;;;5.63;100.00;99955.00;5057461;28;19931;-74
2022/12/30 12:32:35;;;;;;;;;;;;;;;5.64;100.00;99943.56;5058940;28;20421;-74
2022/12/30 12:35:14;;;;;;;;;;;;;;;5.65;100.00;99937.41;5057866;28;19957;-74
2022/12/30 12:37:58;;;;;;;;;;;;;;;5.70;100.00;99940.69;5057404;28;19928;-73
2022/12/30 12:40:30;;;;;;;;;;;;;;;5.74;100.00;99944.94;5046417;28;19933;-75
2022/12/30 12:43:01;;;;;;;;;;;;;;;5.77;100.00;99936.91;5035117;28;19957;-74
2022/12/30 12:45:33;;;;;;;;;;;;;;;5.79;100.00;99924.59;5043281;28;20311;-73
2022/12/30 12:47:59;;;;;;;;;;;;;;;5.81;100.00;99912.25;5036650;28;20004;-74
2022/12/30 12:50:34;;;;;;;;;;;;;;;5.81;100.00;99896.47;5056544;28;19928;-74
2022/12/30 12:53:03;;;;;;;;;;;;;;;5.82;100.00;99903.44;5051823;28;19923;-74
2022/12/30 12:55:28;;;;;;;;;;;;;;;5.84;100.00;99896.34;5053261;28;19931;-75
2022/12/30 12:58:05;;;;;;;;;;;;;;;5.86;100.00;99885.78;5053068;28;19920;-74
2022/12/30 13:00:40;;;;;;;;;;;;;;;5.87;100.00;99884.84;5042762;28;20524;-74
2022/12/30 13:03:11;;;;;;;;;;;;;;;5.89;100.00;99866.41;5052302;28;20389;-75
2022/12/30 13:05:40;;;;;;;;;;;;;;;5.91;100.00;99865.44;5053926;28;19928;-74
2022/12/30 13:08:24;;;;;;;;;;;;;;;5.94;100.00;99838.19;5056488;28;19954;-74
2022/12/30 13:11:03;;;;;;;;;;;;;;;6.00;100.00;99823.91;5061409;28;19924;-74
2022/12/30 13:13:34;;;;;;;;;;;;;;;6.01;100.00;99826.50;5073113;28;20030;-75
2022/12/30 13:16:01;;;;;;;;;;;;;;;6.03;100.00;99808.91;5051961;28;19932;-74
2022/12/30 13:18:26;;;;;;;;;;;;;;;6.06;100.00;99810.56;5056755;28;20037;-75
2022/12/30 13:20:53;;;;;;;;;;;;;;;6.09;100.00;99790.25;5072248;28;20356;-74
2022/12/30 13:23:19;;;;;;;;;;;;;;;6.13;100.00;99779.59;5056500;28;20029;-73
2022/12/30 13:26:11;;;;;;;;;;;;;;;6.17;100.00;99775.91;5055401;28;20030;-74
2022/12/30 13:28:36;;;;;;;;;;;;;;;6.19;100.00;99766.19;5048972;28;19959;-74